createdAt,value
2019-01-24T00:00:00.040Z,18.60
2019-01-24T00:02:28.646Z,18.77
2019-01-24T00:04:57.248Z,19.50
2019-01-24T00:07:25.936Z,18.80
2019-01-24T00:09:54.516Z,19.53
2019-01-24T00:12:42.441Z,19.30
2019-01-24T00:15:11.054Z,19.30
2019-01-24T00:17:59.004Z,20.13
2019-01-24T00:20:46.914Z,20.20
2019-01-24T00:23:15.501Z,22.10
2019-01-24T00:26:03.399Z,20.20
2019-01-24T00:28:51.331Z,20.10
2019-01-24T00:31:19.959Z,20.33
2019-01-24T00:33:48.579Z,20.57
2019-01-24T00:36:17.216Z,21.97
2019-01-24T00:38:45.815Z,20.07
2019-01-24T00:41:33.737Z,21.37
2019-01-24T00:44:21.644Z,22.30
2019-01-24T00:47:09.564Z,20.60
2019-01-24T00:49:38.145Z,20.80
2019-01-24T00:52:26.084Z,21.90
2019-01-24T00:54:54.672Z,21.27
2019-01-24T00:57:23.489Z,23.00
2019-01-24T00:59:52.074Z,22.57
2019-01-24T01:02:20.725Z,21.67
2019-01-24T01:04:49.315Z,22.83
2019-01-24T01:07:37.228Z,22.33
2019-01-24T01:10:25.148Z,22.07
2019-01-24T01:13:13.319Z,20.83
2019-01-24T01:15:41.899Z,22.13
2019-01-24T01:18:10.715Z,20.80
2019-01-24T01:23:27.020Z,21.03
2019-01-24T01:25:55.596Z,21.23
2019-01-24T01:28:24.435Z,20.90
2019-01-24T01:30:53.001Z,21.90
2019-01-24T01:33:21.937Z,21.00
2019-01-24T01:36:10.049Z,21.23
2019-01-24T01:38:58.199Z,22.60
2019-01-24T01:41:46.123Z,23.00
2019-01-24T01:44:34.028Z,22.97
2019-01-24T01:47:22.181Z,22.93
2019-01-24T01:49:51.003Z,22.10
2019-01-24T01:52:19.575Z,20.77
2019-01-24T01:55:07.496Z,22.53
2019-01-24T01:57:36.079Z,23.67
2019-01-24T02:00:24.188Z,23.43
2019-01-24T02:03:12.111Z,23.40
2019-01-24T02:06:00.072Z,21.93
2019-01-24T02:08:28.652Z,22.40
2019-01-24T02:11:16.592Z,22.10
2019-01-24T02:13:45.207Z,22.60
2019-01-24T02:16:25.684Z,22.40
2019-01-24T02:19:06.218Z,22.50
2019-01-24T02:21:47.086Z,21.67
2019-01-24T02:24:15.669Z,22.10
2019-01-24T02:27:03.595Z,21.50
2019-01-24T02:29:51.512Z,22.17
2019-01-24T02:32:39.477Z,21.50
2019-01-24T02:35:08.779Z,20.83
2019-01-24T02:37:37.378Z,23.77
2019-01-24T02:40:25.321Z,22.10
2019-01-24T02:43:13.297Z,22.73
2019-01-24T02:46:01.225Z,23.13
2019-01-24T02:48:49.135Z,23.10
2019-01-24T02:51:37.062Z,21.60
2019-01-24T02:54:25.027Z,23.77
2019-01-24T02:57:13.023Z,22.87
2019-01-24T03:00:00.975Z,24.97
2019-01-24T03:02:29.587Z,24.10
2019-01-24T03:05:18.355Z,22.10
2019-01-24T03:07:46.976Z,23.30
2019-01-24T03:10:34.925Z,23.03
2019-01-24T03:13:22.869Z,23.43
2019-01-24T03:15:51.490Z,24.93
2019-01-24T03:18:39.387Z,22.00
2019-01-24T03:21:27.372Z,22.83
2019-01-24T03:24:15.550Z,22.80
2019-01-24T03:27:03.529Z,23.00
2019-01-24T03:29:51.489Z,24.10
2019-01-24T03:32:39.445Z,23.20
2019-01-24T03:35:27.361Z,25.07
2019-01-24T03:38:15.270Z,22.53
2019-01-24T03:40:43.868Z,23.67
2019-01-24T03:43:31.787Z,24.13
2019-01-24T03:46:19.699Z,23.70
2019-01-24T03:49:07.645Z,24.10
2019-01-24T03:51:55.569Z,23.80
2019-01-24T03:54:43.551Z,25.30
2019-01-24T03:57:31.526Z,23.23
2019-01-24T04:00:00.364Z,23.47
2019-01-24T04:02:48.353Z,23.97
2019-01-24T04:05:16.974Z,23.53
2019-01-24T04:07:45.575Z,22.97
2019-01-24T04:10:33.487Z,25.73
2019-01-24T04:13:02.052Z,23.93
2019-01-24T04:15:43.237Z,23.70
2019-01-24T04:18:23.932Z,25.10
2019-01-24T04:21:04.737Z,22.93
2019-01-24T04:23:33.629Z,26.17
2019-01-24T04:26:21.552Z,22.60
2019-01-24T04:29:09.470Z,22.53
2019-01-24T04:31:38.094Z,24.20
2019-01-24T04:34:25.997Z,22.70
2019-01-24T04:36:54.616Z,24.90
2019-01-24T04:39:42.783Z,24.87
2019-01-24T04:42:30.725Z,25.87
2019-01-24T04:45:18.900Z,24.37
2019-01-24T04:48:06.847Z,24.00
2019-01-24T04:50:54.781Z,24.53
2019-01-24T04:53:42.785Z,24.90
2019-01-24T04:56:30.699Z,24.50
2019-01-24T04:59:18.864Z,24.20
2019-01-24T05:01:47.465Z,24.87
2019-01-24T05:04:16.049Z,23.50
2019-01-24T05:07:03.989Z,23.77
2019-01-24T05:09:32.831Z,25.90
2019-01-24T05:12:20.770Z,24.73
2019-01-24T05:15:08.668Z,24.20
2019-01-24T05:17:37.265Z,25.13
2019-01-24T05:20:25.190Z,24.57
2019-01-24T05:23:13.475Z,25.27
2019-01-24T05:26:01.380Z,25.03
2019-01-24T05:31:25.357Z,24.97
2019-01-24T05:34:13.286Z,24.07
2019-01-24T05:37:03.292Z,24.97
2019-01-24T05:39:51.200Z,24.73
2019-01-24T05:42:39.433Z,24.23
2019-01-24T05:45:27.369Z,24.80
2019-01-24T05:48:15.524Z,24.60
2019-01-24T05:51:06.768Z,23.83
2019-01-24T05:54:09.573Z,24.47
2019-01-24T05:56:44.628Z,24.77
2019-01-24T05:59:32.825Z,24.67
2019-01-24T06:02:21.244Z,24.00
2019-01-24T06:05:09.673Z,25.63
2019-01-24T06:07:57.610Z,24.13
2019-01-24T06:10:46.074Z,25.00
2019-01-24T06:13:33.974Z,26.40
2019-01-24T06:16:15.382Z,24.73
2019-01-24T06:18:55.705Z,25.80
2019-01-24T06:21:36.220Z,26.43
2019-01-24T06:24:04.876Z,24.63
2019-01-24T06:26:53.064Z,24.83
2019-01-24T06:32:49.392Z,25.50
2019-01-24T06:35:37.345Z,26.80
2019-01-24T06:38:25.308Z,24.77
2019-01-24T06:41:13.509Z,26.13
2019-01-24T06:44:01.461Z,26.07
2019-01-24T06:46:37.405Z,25.80
2019-01-24T06:49:25.356Z,26.20
2019-01-24T06:51:53.967Z,25.90
2019-01-24T06:54:22.548Z,26.03
2019-01-24T06:57:10.969Z,26.10
2019-01-24T06:59:39.557Z,26.60
2019-01-24T07:02:27.524Z,26.70
2019-01-24T07:04:56.121Z,25.50
2019-01-24T07:07:25.016Z,27.27
2019-01-24T07:10:13.892Z,26.87
2019-01-24T07:12:42.589Z,26.60
2019-01-24T07:15:30.756Z,28.53
2019-01-24T07:18:12.105Z,26.53
2019-01-24T07:20:52.857Z,27.60
2019-01-24T07:23:33.670Z,26.50
2019-01-24T07:26:02.597Z,27.50
2019-01-24T07:28:31.459Z,28.00
2019-01-24T07:31:00.078Z,26.57
2019-01-24T07:33:28.677Z,27.13
2019-01-24T07:36:16.637Z,27.70
2019-01-24T07:38:45.243Z,29.10
2019-01-24T07:41:33.202Z,27.80
2019-01-24T07:44:01.786Z,27.33
2019-01-24T07:46:30.910Z,28.53
2019-01-24T07:49:19.107Z,28.23
2019-01-24T07:51:47.967Z,27.70
2019-01-24T07:54:35.896Z,27.90
2019-01-24T07:57:23.864Z,27.60
2019-01-24T08:00:13.296Z,27.80
2019-01-24T08:03:01.264Z,27.53
2019-01-24T08:05:49.494Z,26.37
2019-01-24T08:08:37.426Z,27.77
2019-01-24T08:11:25.338Z,25.93
2019-01-24T08:13:54.014Z,26.50
2019-01-24T08:16:22.622Z,28.80
2019-01-24T08:19:10.574Z,28.27
2019-01-24T08:21:39.160Z,27.10
2019-01-24T08:24:27.204Z,28.10
2019-01-24T08:27:15.133Z,26.10
2019-01-24T08:30:03.168Z,27.93
2019-01-24T08:32:51.109Z,29.67
2019-01-24T08:35:39.064Z,28.40
2019-01-24T08:38:26.989Z,28.40
2019-01-24T08:41:14.920Z,26.77
2019-01-24T08:44:03.184Z,27.97
2019-01-24T08:46:51.120Z,27.90
2019-01-24T08:49:39.328Z,28.33
2019-01-24T08:52:27.302Z,28.43
2019-01-24T08:55:16.456Z,29.87
2019-01-24T08:58:04.641Z,28.07
2019-01-24T09:00:52.552Z,29.43
2019-01-24T09:03:21.425Z,30.20
2019-01-24T09:06:09.345Z,30.20
2019-01-24T09:08:57.305Z,27.73
2019-01-24T09:11:45.197Z,29.57
2019-01-24T09:14:33.396Z,28.73
2019-01-24T09:17:13.900Z,29.50
2019-01-24T09:19:42.540Z,28.73
2019-01-24T09:22:11.128Z,28.50
2019-01-24T09:24:39.711Z,29.83
2019-01-24T09:27:08.341Z,28.93
2019-01-24T09:29:37.183Z,29.60
2019-01-24T09:32:25.394Z,28.00
2019-01-24T09:34:53.989Z,30.07
2019-01-24T09:37:41.909Z,30.37
2019-01-24T09:40:29.822Z,27.93
2019-01-24T09:43:17.785Z,30.23
2019-01-24T09:45:46.355Z,29.30
2019-01-24T09:48:14.973Z,27.17
2019-01-24T09:51:02.996Z,28.77
2019-01-24T09:53:31.872Z,27.57
2019-01-24T09:56:19.802Z,28.37
2019-01-24T09:59:07.964Z,28.50
2019-01-24T10:01:56.251Z,28.70
2019-01-24T10:04:44.197Z,27.23
2019-01-24T10:07:12.769Z,28.77
2019-01-24T10:10:00.988Z,30.10
2019-01-24T10:12:30.127Z,28.10
2019-01-24T10:15:18.168Z,27.67
2019-01-24T10:17:59.440Z,28.00
2019-01-24T10:20:28.499Z,27.70
2019-01-24T10:22:57.365Z,29.30
2019-01-24T10:25:28.111Z,25.97
2019-01-24T10:28:16.292Z,27.90
2019-01-24T10:31:04.225Z,27.30
2019-01-24T10:33:52.185Z,26.53
2019-01-24T10:36:20.848Z,26.57
2019-01-24T10:38:49.445Z,26.73
2019-01-24T10:41:37.429Z,28.53
2019-01-24T10:44:25.346Z,28.00
2019-01-24T10:47:13.282Z,28.30
2019-01-24T10:50:01.221Z,27.33
2019-01-24T10:52:29.853Z,27.13
2019-01-24T10:54:58.441Z,25.53
2019-01-24T10:57:27.021Z,27.43
2019-01-24T10:59:55.625Z,25.33
2019-01-24T11:02:43.780Z,24.37
2019-01-24T11:05:13.383Z,27.70
2019-01-24T11:07:42.224Z,28.37
2019-01-24T11:10:10.884Z,26.33
2019-01-24T11:12:59.083Z,26.63
2019-01-24T11:15:47.036Z,25.77
2019-01-24T11:18:15.633Z,25.77
2019-01-24T11:21:03.569Z,25.63
2019-01-24T11:23:51.512Z,25.50
2019-01-24T11:26:39.477Z,26.40
2019-01-24T11:29:08.121Z,27.33
2019-01-24T11:31:36.717Z,24.87
2019-01-24T11:34:05.298Z,25.33
2019-01-24T11:36:57.056Z,25.93
2019-01-24T11:39:23.609Z,25.30
2019-01-24T11:41:52.189Z,27.50
2019-01-24T11:44:40.130Z,27.57
2019-01-24T11:47:28.336Z,25.97
2019-01-24T11:49:56.935Z,24.80
2019-01-24T11:52:25.577Z,25.77
2019-01-24T11:55:14.005Z,26.27
2019-01-24T11:57:42.596Z,26.47
2019-01-24T12:00:34.335Z,26.30
2019-01-24T12:03:22.252Z,25.50
2019-01-24T12:06:10.473Z,25.00
2019-01-24T12:08:58.429Z,26.07
2019-01-24T12:11:27.537Z,24.77
2019-01-24T12:13:56.148Z,24.47
2019-01-24T12:16:24.749Z,24.63
2019-01-24T12:19:06.107Z,25.00
2019-01-24T12:21:34.706Z,25.17
2019-01-24T12:24:22.888Z,24.70
2019-01-24T12:26:51.516Z,26.30
2019-01-24T12:29:40.157Z,23.90
2019-01-24T12:32:08.727Z,24.33
2019-01-24T12:34:37.308Z,24.10
2019-01-24T12:37:11.321Z,24.60
2019-01-24T12:39:36.220Z,23.83
2019-01-24T12:42:05.085Z,24.57
2019-01-24T12:44:33.692Z,25.33
2019-01-24T12:47:02.353Z,23.50
2019-01-24T12:49:50.277Z,23.93
2019-01-24T12:52:38.224Z,25.00
2019-01-24T12:55:07.308Z,23.57
2019-01-24T12:57:36.162Z,22.90
2019-01-24T13:00:25.073Z,23.40
2019-01-24T13:03:13.023Z,23.87
2019-01-24T13:05:41.635Z,22.47
2019-01-24T13:08:10.497Z,24.60
2019-01-24T13:10:58.937Z,25.37
2019-01-24T13:13:27.565Z,23.07
2019-01-24T13:15:56.435Z,23.10
2019-01-24T13:18:25.096Z,23.47
2019-01-24T13:20:53.733Z,23.37
2019-01-24T13:23:41.649Z,22.87
2019-01-24T13:26:10.509Z,22.60
2019-01-24T13:28:58.437Z,23.37
2019-01-24T13:31:27.042Z,22.50
2019-01-24T13:34:14.961Z,22.83
2019-01-24T13:37:02.897Z,22.20
2019-01-24T13:39:51.049Z,21.83
2019-01-24T13:42:19.929Z,21.60
2019-01-24T13:44:48.776Z,21.53
2019-01-24T13:47:36.785Z,23.33
2019-01-24T13:50:25.000Z,23.20
2019-01-24T13:52:53.647Z,23.37
2019-01-24T13:55:41.574Z,22.60
2019-01-24T13:58:10.217Z,22.87
2019-01-24T14:00:40.396Z,22.50
2019-01-24T14:03:30.786Z,21.57
2019-01-24T14:06:18.775Z,23.10
2019-01-24T14:09:08.270Z,22.70
2019-01-24T14:11:56.165Z,21.00
2019-01-24T14:14:44.117Z,22.17
2019-01-24T14:17:25.134Z,22.30
2019-01-24T14:20:06.469Z,25.50
2019-01-24T14:22:35.528Z,26.37
2019-01-24T14:25:23.746Z,27.97
2019-01-24T14:28:11.908Z,37.63
2019-01-24T14:30:59.850Z,35.00
2019-01-24T14:33:48.022Z,33.83
2019-01-24T14:36:35.972Z,32.77
2019-01-24T14:39:23.924Z,31.60
2019-01-24T14:42:11.876Z,31.60
2019-01-24T14:44:40.533Z,29.80
2019-01-24T14:47:28.509Z,30.93
2019-01-24T14:49:57.224Z,30.07
2019-01-24T14:52:25.808Z,30.17
2019-01-24T14:55:13.776Z,30.83
2019-01-24T14:57:42.406Z,28.93
2019-01-24T15:00:32.101Z,29.87
2019-01-24T15:03:00.980Z,30.67
2019-01-24T15:05:29.623Z,28.80
2019-01-24T15:07:58.282Z,28.80
2019-01-24T15:10:46.358Z,28.90
2019-01-24T15:13:34.541Z,27.77
2019-01-24T15:16:03.163Z,28.47
2019-01-24T15:18:44.390Z,28.97
2019-01-24T15:21:24.843Z,28.00
2019-01-24T15:24:02.818Z,26.77
2019-01-24T15:26:31.492Z,29.57
2019-01-24T15:29:00.160Z,28.17
2019-01-24T15:31:28.757Z,29.40
2019-01-24T15:34:16.843Z,27.67
2019-01-24T15:37:04.837Z,27.87
2019-01-24T15:39:52.813Z,29.20
2019-01-24T15:42:40.782Z,28.63
2019-01-24T15:45:10.513Z,28.50
2019-01-24T15:47:39.149Z,30.30
2019-01-24T15:50:09.223Z,28.10
2019-01-24T15:52:38.123Z,30.03
2019-01-24T15:55:06.832Z,28.43
2019-01-24T15:57:35.456Z,29.50
2019-01-24T16:00:05.792Z,29.70
2019-01-24T16:02:34.397Z,29.60
2019-01-24T16:05:03.002Z,30.90
2019-01-24T16:07:53.145Z,31.50
2019-01-24T16:10:22.361Z,30.40
2019-01-24T16:12:51.000Z,28.80
2019-01-24T16:15:22.236Z,31.03
2019-01-24T16:17:51.155Z,29.10
2019-01-24T16:20:21.044Z,28.70
2019-01-24T16:23:09.241Z,29.50
2019-01-24T16:25:38.246Z,29.17
2019-01-24T16:28:06.856Z,31.50
2019-01-24T16:30:36.146Z,29.37
2019-01-24T16:33:24.333Z,31.47
2019-01-24T16:35:52.999Z,30.07
2019-01-24T16:38:21.638Z,32.97
2019-01-24T16:40:50.459Z,31.30
2019-01-24T16:43:19.162Z,31.07
2019-01-24T16:45:48.293Z,32.70
2019-01-24T16:48:16.920Z,30.73
2019-01-24T16:51:05.090Z,29.77
2019-01-24T16:53:33.760Z,32.47
2019-01-24T16:56:02.580Z,31.50
2019-01-24T16:58:31.499Z,31.00
2019-01-24T17:01:04.780Z,30.53
2019-01-24T17:03:33.384Z,31.77
2019-01-24T17:06:01.983Z,32.63
2019-01-24T17:08:30.593Z,32.13
2019-01-24T17:10:59.220Z,31.27
2019-01-24T17:13:47.168Z,30.63
2019-01-24T17:16:35.406Z,29.30
2019-01-24T17:19:04.117Z,32.27
2019-01-24T17:21:52.575Z,32.73
2019-01-24T17:24:21.249Z,32.10
2019-01-24T17:26:50.105Z,30.50
2019-01-24T17:29:18.724Z,32.90
2019-01-24T17:31:47.364Z,33.10
2019-01-24T17:34:15.969Z,32.20
2019-01-24T17:36:43.851Z,32.00
2019-01-24T17:39:31.882Z,30.70
2019-01-24T17:42:00.539Z,33.20
2019-01-24T17:44:33.696Z,31.93
2019-01-24T17:47:01.399Z,31.70
2019-01-24T17:49:30.308Z,33.37
2019-01-24T17:52:18.272Z,32.00
2019-01-24T17:55:07.941Z,33.47
2019-01-24T17:57:36.656Z,32.43
2019-01-24T18:00:26.777Z,35.53
2019-01-24T18:02:55.388Z,34.83
2019-01-24T18:05:24.100Z,33.73
2019-01-24T18:07:52.831Z,35.87
2019-01-24T18:10:23.231Z,35.17
2019-01-24T18:12:51.833Z,34.00
2019-01-24T18:15:40.046Z,33.43
2019-01-24T18:18:10.793Z,31.97
2019-01-24T18:20:39.515Z,39.00
2019-01-24T18:23:08.239Z,35.83
2019-01-24T18:25:37.309Z,36.17
2019-01-24T18:28:07.638Z,35.50
2019-01-24T18:30:36.451Z,35.43
2019-01-24T18:33:05.624Z,36.10
2019-01-24T18:35:34.497Z,35.23
2019-01-24T18:38:03.334Z,36.47
2019-01-24T18:40:51.614Z,42.03
2019-01-24T18:43:39.897Z,45.40
2019-01-24T18:46:28.347Z,41.87
2019-01-24T18:48:57.285Z,39.70
2019-01-24T18:51:45.357Z,38.60
2019-01-24T18:54:14.307Z,38.53
2019-01-24T18:56:43.293Z,37.27
2019-01-24T18:59:12.072Z,35.23
2019-01-24T19:01:40.724Z,35.90
2019-01-24T19:04:09.684Z,35.20
2019-01-24T19:06:38.622Z,35.00
2019-01-24T19:09:08.989Z,34.10
2019-01-24T19:11:37.738Z,33.97
2019-01-24T19:14:06.622Z,36.80
2019-01-24T19:16:56.182Z,32.97
2019-01-24T19:19:24.910Z,37.03
2019-01-24T19:21:53.925Z,36.43
2019-01-24T19:24:23.378Z,38.80
2019-01-24T19:26:52.114Z,35.77
2019-01-24T19:29:21.103Z,37.60
2019-01-24T19:31:49.799Z,36.13
2019-01-24T19:34:19.282Z,36.17
2019-01-24T19:36:48.265Z,35.37
2019-01-24T19:39:16.977Z,34.53
2019-01-24T19:41:45.684Z,40.00
2019-01-24T19:44:15.858Z,40.97
2019-01-24T19:46:46.224Z,38.97
2019-01-24T19:49:15.192Z,39.00
2019-01-24T19:51:45.505Z,38.20
2019-01-24T19:54:14.268Z,35.63
2019-01-24T19:56:43.318Z,35.93
2019-01-24T19:59:12.266Z,35.87
2019-01-24T20:01:40.999Z,35.33
2019-01-24T20:04:09.800Z,35.87
2019-01-24T20:06:38.515Z,35.70
2019-01-24T20:09:08.020Z,35.70
2019-01-24T20:11:36.811Z,34.20
2019-01-24T20:14:05.629Z,35.20
2019-01-24T20:16:34.414Z,33.73
2019-01-24T20:19:03.137Z,34.80
2019-01-24T20:21:32.001Z,34.70
2019-01-24T20:24:00.856Z,35.30
2019-01-24T20:26:29.577Z,34.20
2019-01-24T20:28:58.448Z,37.10
2019-01-24T20:31:27.354Z,39.30
2019-01-24T20:33:56.187Z,39.57
2019-01-24T20:36:24.883Z,39.67
2019-01-24T20:38:53.905Z,36.33
2019-01-24T20:41:22.937Z,35.97
2019-01-24T20:43:51.864Z,36.37
2019-01-24T20:46:20.606Z,38.00
2019-01-24T20:48:49.425Z,36.70
2019-01-24T20:51:18.202Z,35.50
2019-01-24T20:53:46.941Z,33.37
2019-01-24T20:56:15.802Z,33.80
2019-01-24T20:58:44.912Z,35.97
2019-01-24T21:01:13.660Z,36.90
2019-01-24T21:03:42.413Z,36.13
2019-01-24T21:06:11.290Z,35.37
2019-01-24T21:08:40.093Z,35.20
2019-01-24T21:11:08.858Z,34.80
2019-01-24T21:13:37.626Z,34.63
2019-01-24T21:16:06.293Z,35.57
2019-01-24T21:18:35.797Z,35.50
2019-01-24T21:21:04.488Z,35.40
2019-01-24T21:23:33.267Z,35.90
2019-01-24T21:26:02.002Z,34.77
2019-01-24T21:28:30.764Z,33.90
2019-01-24T21:30:59.541Z,36.53
2019-01-24T21:33:28.549Z,35.13
2019-01-24T21:35:57.361Z,38.03
2019-01-24T21:38:26.121Z,35.53
2019-01-24T21:40:54.926Z,36.30
2019-01-24T21:43:23.715Z,35.93
2019-01-24T21:45:52.685Z,36.57
2019-01-24T21:48:21.675Z,35.80
2019-01-24T21:50:50.621Z,35.47
2019-01-24T21:53:19.378Z,37.50
2019-01-24T21:55:48.089Z,37.30
2019-01-24T21:58:17.011Z,35.67
2019-01-24T22:00:45.746Z,38.20
2019-01-24T22:03:14.475Z,38.63
2019-01-24T22:05:43.256Z,36.70
2019-01-24T22:08:12.057Z,37.17
2019-01-24T22:10:40.851Z,35.97
2019-01-24T22:13:09.588Z,36.80
2019-01-24T22:15:38.421Z,38.57
2019-01-24T22:18:07.316Z,38.23
2019-01-24T22:20:36.028Z,36.70
2019-01-24T22:23:05.084Z,38.83
2019-01-24T22:25:34.916Z,36.70
2019-01-24T22:28:03.974Z,37.13
2019-01-24T22:30:41.013Z,35.30
2019-01-24T22:33:09.878Z,38.40
2019-01-24T22:35:38.549Z,37.13
2019-01-24T22:38:07.812Z,36.53
2019-01-24T22:40:37.500Z,39.30
2019-01-24T22:43:06.617Z,36.07
2019-01-24T22:45:36.150Z,39.63
2019-01-24T22:48:05.943Z,37.90
2019-01-24T22:50:34.684Z,38.10
2019-01-24T22:53:03.805Z,35.37
2019-01-24T22:55:32.781Z,36.53
2019-01-24T22:58:01.584Z,37.67
2019-01-24T23:01:10.608Z,36.20
2019-01-24T23:03:48.648Z,36.67
2019-01-24T23:06:17.267Z,36.67
2019-01-24T23:09:07.051Z,39.30
2019-01-24T23:11:55.243Z,36.13
2019-01-24T23:14:23.917Z,37.23
2019-01-24T23:17:11.866Z,36.63
2019-01-24T23:19:53.083Z,36.77
2019-01-24T23:22:21.692Z,34.97
2019-01-24T23:24:50.570Z,37.53
2019-01-24T23:27:38.853Z,36.47
2019-01-24T23:30:26.471Z,37.57
2019-01-24T23:33:14.393Z,35.67
2019-01-24T23:35:43.070Z,37.10
2019-01-24T23:38:11.727Z,36.50
2019-01-24T23:40:59.933Z,37.17
2019-01-24T23:43:28.548Z,37.30
2019-01-24T23:45:57.536Z,37.43
2019-01-24T23:48:45.479Z,38.60
2019-01-24T23:51:26.677Z,38.13
2019-01-24T23:54:07.649Z,38.73
2019-01-24T23:56:36.256Z,36.10
